Aurelia, Iowa
Current Conditions -  °F | °C
As of 2:15 PM on Sunday 23 Nov 2014 (Local Time) from KCKP Reporting Station
Overcast Overcast  
Wind Chill:   Ceiling: 7500
Heat Index:   Visibility: 10mi
Dew Point:   Wind: 18mph
Humidity: 86%   Direction: 330°NNW
Pressure: 29.46"   Gusts: 29mph
Location:  42.71°N, 95.44°W
Report Text: KCKP 232015Z AUTO 33016G25KT 10SM SCT013 OVC075 06/03 A2946 RMK AO2 T00550034
Loading
Personal Weather Stations






























Interactive Weather Map New forecast layout! Learn more

10-Day Weather Forecast

Advertisements
Track Severe Weather on mobile